createdAt,value
2017-06-10T05:56:51.062Z,99.99
2017-06-10T05:57:52.498Z,99.99
2017-06-10T05:58:53.924Z,99.99
2017-06-10T05:59:55.359Z,99.99
2017-06-10T06:00:56.791Z,99.99
2017-06-10T06:01:58.218Z,99.99
2017-06-10T06:02:59.652Z,99.99
2017-06-10T06:04:01.079Z,99.99
2017-06-10T06:05:02.509Z,99.99
2017-06-10T06:06:03.933Z,99.99
2017-06-10T06:07:05.360Z,99.99
2017-06-10T06:08:06.785Z,99.99
2017-06-10T06:09:08.216Z,99.99
2017-06-10T06:10:09.663Z,99.99
2017-06-10T06:11:11.092Z,99.99
2017-06-10T06:12:12.520Z,99.99
2017-06-10T06:13:13.954Z,99.99
2017-06-10T06:14:15.378Z,99.99
2017-06-10T06:15:16.801Z,99.99
2017-06-10T06:16:18.229Z,99.99
2017-06-10T06:17:19.662Z,99.99
2017-06-10T06:18:21.090Z,99.99
2017-06-10T06:19:22.518Z,99.99
2017-06-10T06:20:23.941Z,99.99
2017-06-10T06:21:25.368Z,99.99
2017-06-10T06:22:26.794Z,99.99
2017-06-10T06:23:28.220Z,99.48
2017-06-10T06:24:29.657Z,99.99
2017-06-10T06:25:31.074Z,98.62
2017-06-10T06:26:32.505Z,99.67
2017-06-10T06:27:33.936Z,98.62
2017-06-10T06:28:35.372Z,99.29
2017-06-10T06:29:36.798Z,99.96
2017-06-10T06:30:38.225Z,99.96
2017-06-10T06:31:39.657Z,99.99
2017-06-10T06:32:41.087Z,98.91
2017-06-10T06:33:42.523Z,99.87
2017-06-10T06:34:45.435Z,99.58
2017-06-10T06:35:46.870Z,99.38
2017-06-10T06:36:48.294Z,99.77
2017-06-10T06:37:49.723Z,99.58
2017-06-10T06:38:51.153Z,99.96
2017-06-10T06:39:52.581Z,99.99
2017-06-10T06:40:54.011Z,99.96
2017-06-10T06:41:55.436Z,99.00
2017-06-10T06:42:56.871Z,98.91
2017-06-10T06:43:58.300Z,98.47
2017-06-10T06:44:59.734Z,98.96
2017-06-10T06:46:01.163Z,98.81
2017-06-10T06:47:02.597Z,97.42
2017-06-10T06:48:04.033Z,95.89
2017-06-10T06:49:05.458Z,95.70
2017-06-10T06:50:06.878Z,94.64
2017-06-10T06:51:08.311Z,95.22
2017-06-10T06:52:09.738Z,93.59
2017-06-10T06:53:11.169Z,93.21
2017-06-10T06:54:12.593Z,96.27
2017-06-10T06:55:14.036Z,93.59
2017-06-10T06:56:15.468Z,92.15
2017-06-10T06:57:16.898Z,93.40
2017-06-10T06:58:18.328Z,93.30
2017-06-10T06:59:19.760Z,94.17
2017-06-10T07:00:21.194Z,93.69
2017-06-10T07:01:22.629Z,94.17
2017-06-10T07:02:24.068Z,93.59
2017-06-10T07:03:25.505Z,92.63
2017-06-10T07:04:26.944Z,92.63
2017-06-10T07:05:28.375Z,93.59
2017-06-10T07:06:29.811Z,94.35
2017-06-10T07:07:31.235Z,93.69
2017-06-10T07:08:32.669Z,93.40
2017-06-10T07:09:34.097Z,95.31
2017-06-10T07:10:35.526Z,93.78
2017-06-10T07:11:36.955Z,93.40
2017-06-10T07:12:38.379Z,92.92
2017-06-10T07:13:39.813Z,91.34
2017-06-10T07:14:41.243Z,91.72
2017-06-10T07:15:42.683Z,92.77
2017-06-10T07:16:44.121Z,90.57
2017-06-10T07:17:45.559Z,91.14
2017-06-10T07:18:46.999Z,91.82
2017-06-10T07:19:48.428Z,89.80
2017-06-10T07:20:49.863Z,90.00
2017-06-10T07:21:51.291Z,90.86
2017-06-10T07:22:52.721Z,89.90
2017-06-10T07:23:54.145Z,90.57
2017-06-10T07:24:55.569Z,90.19
2017-06-10T07:25:57.003Z,90.57
2017-06-10T07:26:58.432Z,90.00
2017-06-10T07:27:59.853Z,88.37
2017-06-10T07:29:01.292Z,88.17
2017-06-10T07:30:02.722Z,88.89
2017-06-10T07:31:04.152Z,88.79
2017-06-10T07:32:05.579Z,85.63
2017-06-10T07:33:07.010Z,86.68
2017-06-10T07:34:08.445Z,87.35
2017-06-10T07:35:09.881Z,87.16
2017-06-10T07:36:11.321Z,87.84
2017-06-10T07:37:12.782Z,88.79
2017-06-10T07:38:14.225Z,88.22
2017-06-10T07:39:15.646Z,87.64
2017-06-10T07:40:17.078Z,87.35
2017-06-10T07:41:18.513Z,88.89
2017-06-10T07:42:19.944Z,90.52
2017-06-10T07:43:21.377Z,88.02
2017-06-10T07:44:22.898Z,87.21
2017-06-10T07:45:24.369Z,86.68
2017-06-10T07:46:25.799Z,87.45
2017-06-10T07:47:27.233Z,86.44
2017-06-10T07:48:28.652Z,87.93
2017-06-10T07:49:30.089Z,85.38
2017-06-10T07:50:31.528Z,85.72
2017-06-10T07:51:32.957Z,86.88
2017-06-10T07:52:34.446Z,87.16
2017-06-10T07:53:35.880Z,87.07
2017-06-10T07:54:37.309Z,86.82
2017-06-10T07:55:38.797Z,86.92
2017-06-10T07:56:40.226Z,86.25
2017-06-10T07:57:41.651Z,87.78
2017-06-10T07:58:43.082Z,88.55
2017-06-10T07:59:44.516Z,88.55
2017-06-10T08:00:45.949Z,88.21
2017-06-10T08:01:47.380Z,87.92
2017-06-10T08:02:48.811Z,81.78
2017-06-10T08:03:50.326Z,83.60
2017-06-10T08:04:51.753Z,84.75
2017-06-10T08:05:53.183Z,83.60
2017-06-10T08:06:54.684Z,85.18
2017-06-10T08:07:56.116Z,84.22
2017-06-10T08:08:57.546Z,84.22
2017-06-10T08:09:58.974Z,84.80
2017-06-10T08:11:00.413Z,85.08
2017-06-10T08:12:01.845Z,83.36
2017-06-10T08:13:03.278Z,81.05
2017-06-10T08:14:04.752Z,80.66
2017-06-10T08:15:06.187Z,82.01
2017-06-10T08:16:07.615Z,84.12
2017-06-10T08:17:09.048Z,82.68
2017-06-10T08:18:10.479Z,79.99
2017-06-10T08:19:11.908Z,80.96
2017-06-10T08:20:13.344Z,78.45
2017-06-10T08:21:14.922Z,78.84
2017-06-10T08:22:16.361Z,79.71
2017-06-10T08:23:17.792Z,80.66
2017-06-10T08:24:19.222Z,80.09
2017-06-10T08:25:20.685Z,79.90
2017-06-10T08:26:22.132Z,80.66
2017-06-10T08:27:23.579Z,81.92
2017-06-10T08:28:24.998Z,81.34
2017-06-10T08:29:26.431Z,81.76
2017-06-10T08:30:27.864Z,82.05
2017-06-10T08:31:29.295Z,81.63
2017-06-10T08:32:30.728Z,79.75
2017-06-10T08:33:32.208Z,78.98
2017-06-10T08:34:33.645Z,79.79
2017-06-10T08:35:35.087Z,81.23
2017-06-10T08:36:36.511Z,80.07
2017-06-10T08:37:37.951Z,79.35
2017-06-10T08:38:39.377Z,78.28
2017-06-10T08:39:40.824Z,79.21
2017-06-10T08:40:42.277Z,78.34
2017-06-10T08:41:43.714Z,78.09
2017-06-10T08:42:45.151Z,79.02
2017-06-10T08:43:46.587Z,76.26
2017-06-10T08:44:48.022Z,80.02
2017-06-10T08:45:49.450Z,78.58
2017-06-10T08:46:50.889Z,75.88
2017-06-10T08:47:52.325Z,74.63
2017-06-10T08:48:53.758Z,74.15
2017-06-10T08:49:55.195Z,73.96
2017-06-10T08:50:56.622Z,75.49
2017-06-10T08:51:58.065Z,70.78
2017-06-10T08:52:59.493Z,71.17
2017-06-10T08:54:00.929Z,70.50
2017-06-10T08:55:02.359Z,70.59
2017-06-10T08:56:03.793Z,72.74
2017-06-10T08:57:05.233Z,73.51
2017-06-10T08:58:06.672Z,72.17
2017-06-10T08:59:08.098Z,71.36
2017-06-10T09:00:09.528Z,73.77
2017-06-10T09:01:10.963Z,72.42
2017-06-10T09:02:12.429Z,72.13
2017-06-10T09:03:13.867Z,74.09
2017-06-10T09:04:15.299Z,75.02
2017-06-10T09:05:16.732Z,74.25
2017-06-10T09:06:18.161Z,73.96
2017-06-10T09:07:19.596Z,73.57
2017-06-10T09:08:21.032Z,74.29
2017-06-10T09:09:22.462Z,72.42
2017-06-10T09:10:23.891Z,73.00
2017-06-10T09:11:25.319Z,74.54
2017-06-10T09:12:26.756Z,75.31
2017-06-10T09:13:28.191Z,73.03
2017-06-10T09:14:29.624Z,75.09
2017-06-10T09:15:31.061Z,75.86
2017-06-10T09:16:32.501Z,75.67
2017-06-10T09:17:33.946Z,75.42
2017-06-10T09:18:35.389Z,71.56
2017-06-10T09:19:36.823Z,73.49
2017-06-10T09:20:38.265Z,73.20
2017-06-10T09:21:39.690Z,73.62
2017-06-10T09:22:41.121Z,71.37
2017-06-10T09:23:42.562Z,69.51
2017-06-10T09:24:43.999Z,71.62
2017-06-10T09:25:45.427Z,72.11
2017-06-10T09:26:46.859Z,73.84
2017-06-10T09:27:48.302Z,72.49
2017-06-10T09:28:49.734Z,74.16
2017-06-10T09:29:51.168Z,74.74
2017-06-10T09:30:52.603Z,69.25
2017-06-10T09:31:54.043Z,66.36
2017-06-10T09:32:55.484Z,67.90
2017-06-10T09:33:56.922Z,65.88
2017-06-10T09:34:58.371Z,66.36
2017-06-10T09:35:59.806Z,66.46
2017-06-10T09:37:01.238Z,66.36
2017-06-10T09:38:02.674Z,67.71
2017-06-10T09:39:04.110Z,70.35
2017-06-10T09:40:05.544Z,72.37
2017-06-10T09:41:06.987Z,67.26
2017-06-10T09:42:08.425Z,69.15
2017-06-10T09:43:09.857Z,67.33
2017-06-10T09:44:11.291Z,67.33
2017-06-10T09:45:12.737Z,67.61
2017-06-10T09:46:14.169Z,70.31
2017-06-10T09:47:15.606Z,69.96
2017-06-10T09:48:17.040Z,70.25
2017-06-10T09:49:18.473Z,70.25
2017-06-10T09:50:19.903Z,66.17
2017-06-10T09:51:21.342Z,65.78
2017-06-10T09:52:22.772Z,65.01
2017-06-10T09:53:24.213Z,66.39
2017-06-10T09:54:25.654Z,68.13
2017-06-10T09:55:27.084Z,69.35
2017-06-10T09:56:28.521Z,67.52
2017-06-10T09:57:29.957Z,69.83
2017-06-10T09:58:31.392Z,66.27
2017-06-10T09:59:32.829Z,66.69
2017-06-10T10:00:34.267Z,65.91
2017-06-10T10:01:35.702Z,67.65
2017-06-10T10:02:37.134Z,67.94
2017-06-10T10:03:38.565Z,66.78
2017-06-10T10:04:40.003Z,66.30
2017-06-10T10:05:41.431Z,66.49
2017-06-10T10:06:42.868Z,68.07
2017-06-10T10:07:44.304Z,68.93
2017-06-10T10:08:45.736Z,67.55
2017-06-10T10:09:47.174Z,66.20
2017-06-10T10:10:48.605Z,65.91
2017-06-10T10:11:50.040Z,66.11
2017-06-10T10:12:51.484Z,67.30
2017-06-10T10:13:52.917Z,67.78
2017-06-10T10:14:54.355Z,66.43
2017-06-10T10:15:55.786Z,65.08
2017-06-10T10:16:57.215Z,66.33
2017-06-10T10:17:58.646Z,67.81
2017-06-10T10:19:00.084Z,66.62
2017-06-10T10:20:01.517Z,66.82
2017-06-10T10:21:02.955Z,64.31
2017-06-10T10:22:04.391Z,65.30
2017-06-10T10:23:05.837Z,66.27
2017-06-10T10:24:07.266Z,66.36
2017-06-10T10:25:08.714Z,65.91
2017-06-10T10:26:10.152Z,63.92
2017-06-10T10:27:11.589Z,63.12
2017-06-10T10:28:13.062Z,64.89
2017-06-10T10:29:14.489Z,61.28
2017-06-10T10:30:15.933Z,63.85
2017-06-10T10:31:17.380Z,63.89
2017-06-10T10:32:18.817Z,64.95
2017-06-10T10:33:20.250Z,62.34
2017-06-10T10:34:21.684Z,64.28
2017-06-10T10:35:23.125Z,63.31
2017-06-10T10:36:24.583Z,62.18
2017-06-10T10:37:25.992Z,63.05
2017-06-10T10:38:27.453Z,60.99
2017-06-10T10:39:28.867Z,62.79
2017-06-10T10:40:30.299Z,61.93
2017-06-10T10:41:31.739Z,64.76
2017-06-10T10:42:33.175Z,65.34
2017-06-10T10:43:34.661Z,67.17
2017-06-10T10:44:36.098Z,63.60
2017-06-10T10:45:37.530Z,64.28
2017-06-10T10:46:38.968Z,63.12
2017-06-10T10:47:40.411Z,63.63
2017-06-10T10:48:41.858Z,62.05
2017-06-10T10:49:43.289Z,60.13
2017-06-10T10:50:44.731Z,59.64
2017-06-10T10:51:46.164Z,61.86
2017-06-10T10:52:47.601Z,60.48
2017-06-10T10:53:49.041Z,63.98
2017-06-10T10:54:50.492Z,64.56
2017-06-10T10:55:51.939Z,62.31
2017-06-10T10:56:53.369Z,62.60
2017-06-10T10:57:54.816Z,62.99
2017-06-10T10:58:56.291Z,62.02
2017-06-10T10:59:57.721Z,62.82
2017-06-10T11:00:59.165Z,65.34
2017-06-10T11:02:00.607Z,61.19
2017-06-10T11:03:02.035Z,62.82
2017-06-10T11:04:03.470Z,62.73
2017-06-10T11:05:04.902Z,64.95
2017-06-10T11:06:06.334Z,61.96
2017-06-10T11:07:07.791Z,63.12
2017-06-10T11:08:09.220Z,61.28
2017-06-10T11:09:10.661Z,62.47
2017-06-10T11:10:12.102Z,62.44
2017-06-10T11:11:13.541Z,62.05
2017-06-10T11:12:14.986Z,61.83
2017-06-10T11:13:16.421Z,61.41
2017-06-10T11:14:17.854Z,59.86
2017-06-10T11:15:19.297Z,61.12
2017-06-10T11:16:20.736Z,60.76
2017-06-10T11:17:22.172Z,60.89
2017-06-10T11:18:23.605Z,60.41
2017-06-10T11:19:25.045Z,61.63
2017-06-10T11:20:26.477Z,61.33
2017-06-10T11:21:27.920Z,59.63
2017-06-10T11:22:29.352Z,57.24
2017-06-10T11:23:30.784Z,57.66
2017-06-10T11:24:32.226Z,54.85
2017-06-10T11:25:33.662Z,55.92
2017-06-10T11:26:35.086Z,55.63
2017-06-10T11:27:36.521Z,56.88
2017-06-10T11:28:37.959Z,56.50
2017-06-10T11:29:39.398Z,58.14
2017-06-10T11:30:40.843Z,59.01
2017-06-10T11:31:42.273Z,55.82
2017-06-10T11:32:43.714Z,53.99
2017-06-10T11:33:45.158Z,53.04
2017-06-10T11:34:46.593Z,55.46
2017-06-10T11:35:48.038Z,54.30
2017-06-10T11:36:49.480Z,58.56
2017-06-10T11:37:50.920Z,55.07
2017-06-10T11:38:52.359Z,54.79
2017-06-10T11:39:53.799Z,55.92
2017-06-10T11:40:55.238Z,55.70
2017-06-10T11:41:56.673Z,56.67
2017-06-10T11:42:58.111Z,54.53
2017-06-10T11:43:59.546Z,54.73
2017-06-10T11:45:00.990Z,55.96
2017-06-10T11:46:02.426Z,56.02
2017-06-10T11:47:03.868Z,54.27
2017-06-10T11:48:05.301Z,52.44
2017-06-10T11:49:06.746Z,53.11
2017-06-10T11:50:08.184Z,53.77
2017-06-10T11:51:09.632Z,54.93
2017-06-10T11:52:11.067Z,56.95
2017-06-10T11:53:12.508Z,55.96
2017-06-10T11:54:13.938Z,56.05
2017-06-10T11:55:15.381Z,56.21
2017-06-10T11:56:16.809Z,55.89
2017-06-10T11:57:18.245Z,55.09
2017-06-10T11:58:19.678Z,54.00
2017-06-10T11:59:21.119Z,56.80
2017-06-10T12:00:22.550Z,55.93
2017-06-10T12:01:23.995Z,56.61
2017-06-10T12:02:25.431Z,57.09
2017-06-10T12:03:26.870Z,54.75
2017-06-10T12:04:28.316Z,55.81
2017-06-10T12:05:29.738Z,56.96
2017-06-10T12:06:31.176Z,60.67
2017-06-10T12:07:32.610Z,61.92
2017-06-10T12:08:34.050Z,58.25
2017-06-10T12:09:35.483Z,57.87
2017-06-10T12:10:36.920Z,58.25
2017-06-10T12:11:38.362Z,57.57
2017-06-10T12:12:39.803Z,59.22
2017-06-10T12:13:41.244Z,56.73
2017-06-10T12:14:42.681Z,55.47
2017-06-10T12:15:44.119Z,57.56
2017-06-10T12:16:45.557Z,57.28
2017-06-10T12:17:46.991Z,55.53
2017-06-10T12:18:48.431Z,55.63
2017-06-10T12:19:49.867Z,58.24
2017-06-10T12:20:51.303Z,54.57
2017-06-10T12:21:52.740Z,55.43
2017-06-10T12:22:54.189Z,57.56
2017-06-10T12:23:55.636Z,56.70
2017-06-10T12:24:57.084Z,55.94
2017-06-10T12:25:58.507Z,56.52
2017-06-10T12:26:59.942Z,55.89
2017-06-10T12:28:01.379Z,54.57
2017-06-10T12:29:02.828Z,56.92
2017-06-10T12:30:04.264Z,56.02
2017-06-10T12:31:05.696Z,55.53
2017-06-10T12:32:07.130Z,56.82
2017-06-10T12:33:08.571Z,52.17
2017-06-10T12:34:10.014Z,55.00
2017-06-10T12:35:11.451Z,55.10
2017-06-10T12:36:12.886Z,54.62
2017-06-10T12:37:14.325Z,56.14
2017-06-10T12:38:15.753Z,53.63
2017-06-10T12:39:17.189Z,54.37
2017-06-10T12:40:18.641Z,53.72
2017-06-10T12:41:20.074Z,53.75
2017-06-10T12:42:21.512Z,54.39
2017-06-10T12:43:22.948Z,54.79
2017-06-10T12:44:24.381Z,53.79
2017-06-10T12:45:25.821Z,54.27
2017-06-10T12:46:27.257Z,55.92
2017-06-10T12:47:28.725Z,57.59
2017-06-10T12:48:30.134Z,52.92
2017-06-10T12:49:31.574Z,53.53
2017-06-10T12:50:33.009Z,54.01
2017-06-10T12:51:34.451Z,54.17
2017-06-10T12:52:35.881Z,54.69
2017-06-10T12:53:37.324Z,53.50
2017-06-10T12:54:38.768Z,54.08
2017-06-10T12:55:40.204Z,54.08
2017-06-10T12:56:41.644Z,55.94
2017-06-10T12:57:43.080Z,55.98
2017-06-10T12:58:44.518Z,54.33
2017-06-10T12:59:45.952Z,52.03
2017-06-10T13:00:47.392Z,54.23
2017-06-10T13:01:48.828Z,53.23
2017-06-10T13:02:50.285Z,56.26
2017-06-10T13:03:51.706Z,54.98
2017-06-10T13:04:53.139Z,51.40
2017-06-10T13:05:54.575Z,54.66
2017-06-10T13:06:56.023Z,54.39
2017-06-10T13:07:57.465Z,56.62
2017-06-10T13:08:58.906Z,54.49
2017-06-10T13:10:00.336Z,56.36
2017-06-10T13:11:01.784Z,54.79
2017-06-10T13:12:03.212Z,55.82
2017-06-10T13:13:04.648Z,57.20
2017-06-10T13:14:06.093Z,57.53
2017-06-10T13:15:07.523Z,54.62
2017-06-10T13:16:08.964Z,55.68
2017-06-10T13:17:10.402Z,56.77
2017-06-10T13:18:11.868Z,55.52
2017-06-10T13:19:13.285Z,55.74
2017-06-10T13:20:14.720Z,54.01
2017-06-10T13:21:16.157Z,55.76
2017-06-10T13:22:17.603Z,57.11
2017-06-10T13:23:19.041Z,55.07
2017-06-10T13:24:20.484Z,55.34
2017-06-10T13:25:21.937Z,55.07
2017-06-10T13:26:23.365Z,55.56
2017-06-10T13:27:24.801Z,55.73
2017-06-10T13:28:26.238Z,55.66
2017-06-10T13:29:27.681Z,54.43
2017-06-10T13:30:29.120Z,57.23
2017-06-10T13:31:30.549Z,57.79
2017-06-10T13:32:31.989Z,58.17
2017-06-10T13:33:33.427Z,56.52
2017-06-10T13:34:34.857Z,56.62
2017-06-10T13:35:36.298Z,56.82
2017-06-10T13:36:37.741Z,56.07
2017-06-10T13:37:39.176Z,57.40
2017-06-10T13:38:40.667Z,61.01
2017-06-10T13:39:42.112Z,57.50
2017-06-10T13:40:43.551Z,59.69
2017-06-10T13:41:44.988Z,58.14
2017-06-10T13:42:46.431Z,59.31
2017-06-10T13:43:47.876Z,60.57
2017-06-10T13:44:49.307Z,57.95
2017-06-10T13:45:50.761Z,58.34
2017-06-10T13:46:52.196Z,59.21
2017-06-10T13:47:53.631Z,58.63
2017-06-10T13:48:55.073Z,59.40
2017-06-10T13:49:56.510Z,58.53
2017-06-10T13:50:57.949Z,61.72
2017-06-10T13:51:59.392Z,60.59
2017-06-10T13:53:00.829Z,60.78
2017-06-10T13:54:02.288Z,60.30
2017-06-10T13:55:03.726Z,60.14
2017-06-10T13:56:05.169Z,56.92
2017-06-10T13:57:06.626Z,56.04
2017-06-10T13:58:08.061Z,56.62
2017-06-10T13:59:09.498Z,58.17
2017-06-10T14:00:10.933Z,56.50
2017-06-10T14:01:12.381Z,57.37
2017-06-10T14:02:13.810Z,57.76
2017-06-10T14:03:15.246Z,59.40
2017-06-10T14:04:16.743Z,59.01
2017-06-10T14:05:18.188Z,60.27
2017-06-10T14:06:19.626Z,58.31
2017-06-10T14:07:21.066Z,58.92
2017-06-10T14:08:22.504Z,58.60
2017-06-10T14:09:23.941Z,57.66
2017-06-10T14:10:25.377Z,58.63
2017-06-10T14:11:26.815Z,57.28
2017-06-10T14:12:28.260Z,58.40
2017-06-10T14:13:29.702Z,59.11
2017-06-10T14:14:31.131Z,59.08
2017-06-10T14:15:32.611Z,58.53
2017-06-10T14:16:34.060Z,59.40
2017-06-10T14:17:35.497Z,60.75
2017-06-10T14:18:36.952Z,57.59
2017-06-10T14:19:38.417Z,58.47
2017-06-10T14:20:39.852Z,60.50
2017-06-10T14:21:41.301Z,60.88
2017-06-10T14:22:42.735Z,60.75
2017-06-10T14:23:44.172Z,60.85
2017-06-10T14:24:45.607Z,57.66
2017-06-10T14:25:47.052Z,60.05
2017-06-10T14:26:48.494Z,60.34
2017-06-10T14:27:49.924Z,60.53
2017-06-10T14:28:51.364Z,61.79
2017-06-10T14:29:52.803Z,59.47
2017-06-10T14:30:54.250Z,59.47
2017-06-10T14:31:55.686Z,61.50
2017-06-10T14:32:57.118Z,62.40
2017-06-10T14:33:58.559Z,63.08
2017-06-10T14:34:59.995Z,65.88
2017-06-10T14:36:01.419Z,62.01
2017-06-10T14:37:02.876Z,61.43
2017-06-10T14:38:04.319Z,60.75
2017-06-10T14:39:05.757Z,60.17
2017-06-10T14:40:07.201Z,59.01
2017-06-10T14:41:08.714Z,59.50
2017-06-10T14:42:10.158Z,60.75
2017-06-10T14:43:11.592Z,58.34
2017-06-10T14:44:13.049Z,60.78
2017-06-10T14:45:14.497Z,58.47
2017-06-10T14:46:15.942Z,58.47
2017-06-10T14:47:17.379Z,58.65
2017-06-10T14:48:18.814Z,58.47
2017-06-10T14:49:20.255Z,60.30
2017-06-10T14:50:21.695Z,60.37
2017-06-10T14:51:23.130Z,58.47
2017-06-10T14:52:24.568Z,59.53
2017-06-10T14:53:25.999Z,58.14
2017-06-10T14:54:27.438Z,60.47
2017-06-10T14:55:28.893Z,60.14
2017-06-10T14:56:30.333Z,59.47
2017-06-10T14:57:31.772Z,60.72
2017-06-10T14:58:33.214Z,58.98
2017-06-10T14:59:34.744Z,59.92
2017-06-10T15:00:36.178Z,59.92
2017-06-10T15:01:37.621Z,59.66
2017-06-10T15:02:39.059Z,60.72
2017-06-10T15:03:40.498Z,59.05
2017-06-10T15:04:41.945Z,59.15
2017-06-10T15:05:43.377Z,59.95
2017-06-10T15:06:44.816Z,61.37
2017-06-10T15:07:46.265Z,60.02
2017-06-10T15:08:47.699Z,62.15
2017-06-10T15:09:49.696Z,61.95
2017-06-10T15:10:51.129Z,61.27
2017-06-10T15:11:52.570Z,60.53
2017-06-10T15:12:54.004Z,60.05
2017-06-10T15:13:55.444Z,59.47
2017-06-10T15:14:56.871Z,60.24
2017-06-10T15:15:58.316Z,59.47
2017-06-10T15:16:59.749Z,59.86
2017-06-10T15:18:01.195Z,59.15
2017-06-10T15:19:02.633Z,60.31
2017-06-10T15:20:04.072Z,59.86
2017-06-10T15:21:05.509Z,61.40
2017-06-10T15:22:06.946Z,60.82
2017-06-10T15:23:08.386Z,65.56
2017-06-10T15:24:09.827Z,60.05
2017-06-10T15:25:11.265Z,62.47
2017-06-10T15:26:12.698Z,60.92
2017-06-10T15:27:14.143Z,59.79
2017-06-10T15:28:15.580Z,61.15
2017-06-10T15:29:17.012Z,62.50
2017-06-10T15:30:18.446Z,59.59
2017-06-10T15:31:19.883Z,59.08
2017-06-10T15:32:21.311Z,59.98
2017-06-10T15:33:22.751Z,60.17
2017-06-10T15:34:24.187Z,61.53
2017-06-10T15:35:25.623Z,61.18
2017-06-10T15:36:27.062Z,59.98
2017-06-10T15:37:28.504Z,57.30
2017-06-10T15:38:29.940Z,56.92
2017-06-10T15:39:31.382Z,57.46
2017-06-10T15:40:32.823Z,62.21
2017-06-10T15:41:34.264Z,59.98
2017-06-10T15:42:35.706Z,60.47
2017-06-10T15:43:37.139Z,60.08
2017-06-10T15:44:38.569Z,60.72
2017-06-10T15:45:40.011Z,59.86
2017-06-10T15:46:41.451Z,62.18
2017-06-10T15:47:42.893Z,63.21
2017-06-10T15:48:44.326Z,63.11
2017-06-10T15:49:45.760Z,60.02
2017-06-10T15:50:47.198Z,61.27
2017-06-10T15:51:48.639Z,61.08
2017-06-10T15:52:50.081Z,61.18
2017-06-10T15:53:51.511Z,60.21
2017-06-10T15:54:52.949Z,61.44
2017-06-10T15:55:54.392Z,61.54
2017-06-10T15:56:55.823Z,61.25
2017-06-10T15:57:57.262Z,61.27
2017-06-10T15:58:58.687Z,61.05
2017-06-10T16:00:00.136Z,60.02
2017-06-10T16:01:01.578Z,60.99
2017-06-10T16:02:03.013Z,61.27
2017-06-10T16:03:04.454Z,61.73
2017-06-10T16:04:05.893Z,61.25
2017-06-10T16:05:07.335Z,63.08
2017-06-10T16:06:08.760Z,63.08
2017-06-10T16:07:10.197Z,63.66
2017-06-10T16:08:11.630Z,62.89
2017-06-10T16:09:13.061Z,61.92
2017-06-10T16:10:14.494Z,61.63
2017-06-10T16:11:15.928Z,61.15
2017-06-10T16:12:17.357Z,62.12
2017-06-10T16:13:18.809Z,63.76
2017-06-10T16:14:20.242Z,61.05
2017-06-10T16:15:21.674Z,62.79
2017-06-10T16:16:23.112Z,60.86
2017-06-10T16:17:24.561Z,59.89
2017-06-10T16:18:25.994Z,60.76
2017-06-10T16:19:27.421Z,61.92
2017-06-10T16:20:28.851Z,62.21
2017-06-10T16:21:30.290Z,63.47
2017-06-10T16:22:31.725Z,63.66
2017-06-10T16:23:33.164Z,62.21
2017-06-10T16:24:34.607Z,61.25
2017-06-10T16:25:36.041Z,61.25
2017-06-10T16:26:37.484Z,62.40
2017-06-10T16:27:38.920Z,62.50
2017-06-10T16:28:40.360Z,60.76
2017-06-10T16:29:41.789Z,60.86
2017-06-10T16:30:43.225Z,61.51
2017-06-10T16:31:44.662Z,62.02
2017-06-10T16:32:46.096Z,62.70
2017-06-10T16:33:47.528Z,60.76
2017-06-10T16:34:48.997Z,62.02
2017-06-10T16:35:50.440Z,62.28
2017-06-10T16:36:51.875Z,62.60
2017-06-10T16:37:53.306Z,60.67
2017-06-10T16:38:54.743Z,63.24
2017-06-10T16:39:56.179Z,60.73
2017-06-10T16:40:57.607Z,62.31
2017-06-10T16:41:59.047Z,62.60
2017-06-10T16:43:00.486Z,63.18
2017-06-10T16:44:01.920Z,62.21
2017-06-10T16:45:03.354Z,62.79
2017-06-10T16:46:04.791Z,61.05
2017-06-10T16:47:06.229Z,62.95
2017-06-10T16:48:07.667Z,61.44
2017-06-10T16:49:09.099Z,62.12
2017-06-10T16:50:10.552Z,63.56
2017-06-10T16:51:11.982Z,63.05
2017-06-10T16:52:13.411Z,62.89
2017-06-10T16:53:14.849Z,63.85
2017-06-10T16:54:16.285Z,62.21
2017-06-10T16:55:17.717Z,64.50
2017-06-10T16:56:19.156Z,62.95
2017-06-10T16:57:20.582Z,61.02
2017-06-10T16:58:22.014Z,61.22
2017-06-10T16:59:23.455Z,61.34
2017-06-10T17:00:24.896Z,62.57
2017-06-10T17:01:26.325Z,60.96
2017-06-10T17:02:27.756Z,61.70
2017-06-10T17:03:29.194Z,61.25
2017-06-10T17:04:30.626Z,63.24
2017-06-10T17:05:32.064Z,64.11
2017-06-10T17:06:33.492Z,62.47
2017-06-10T17:07:34.929Z,62.18
2017-06-10T17:08:36.366Z,63.15
2017-06-10T17:09:37.807Z,63.05
2017-06-10T17:10:39.251Z,62.95
2017-06-10T17:11:40.683Z,61.99
2017-06-10T17:12:42.119Z,61.41
2017-06-10T17:13:43.559Z,62.12
2017-06-10T17:14:44.996Z,63.08
2017-06-10T17:15:46.424Z,64.40
2017-06-10T17:16:47.855Z,63.15
2017-06-10T17:17:49.290Z,62.47
2017-06-10T17:18:50.730Z,61.60
2017-06-10T17:19:52.168Z,61.80
2017-06-10T17:20:53.602Z,62.02
2017-06-10T17:21:55.026Z,61.70
2017-06-10T17:22:56.467Z,61.02
2017-06-10T17:23:57.907Z,60.44
2017-06-10T17:24:59.348Z,60.73
2017-06-10T17:26:00.776Z,63.15
2017-06-10T17:27:02.209Z,64.79
2017-06-10T17:28:03.652Z,64.50
2017-06-10T17:29:05.080Z,63.53
2017-06-10T17:30:06.514Z,64.79
2017-06-10T17:31:07.945Z,66.05
2017-06-10T17:32:09.376Z,62.28
2017-06-10T17:33:10.809Z,64.50
2017-06-10T17:34:12.249Z,62.47
2017-06-10T17:35:13.687Z,64.01
2017-06-10T17:36:15.109Z,64.50
2017-06-10T17:37:16.553Z,62.37
2017-06-10T17:38:18.001Z,61.22
2017-06-10T17:39:19.434Z,62.76
2017-06-10T17:40:20.873Z,60.83
2017-06-10T17:41:22.302Z,60.38
2017-06-10T17:42:23.729Z,61.54
2017-06-10T17:43:25.165Z,62.47
2017-06-10T17:44:26.597Z,63.73
2017-06-10T17:45:28.032Z,60.64
2017-06-10T17:46:29.466Z,60.73
2017-06-10T17:47:30.897Z,61.99
2017-06-10T17:48:32.327Z,63.05
2017-06-10T17:49:33.769Z,60.44
2017-06-10T17:50:35.209Z,60.54
2017-06-10T17:51:36.638Z,61.80
2017-06-10T17:52:38.076Z,61.99
2017-06-10T17:53:39.509Z,62.08
2017-06-10T17:54:40.944Z,64.21
2017-06-10T17:55:42.387Z,64.40
2017-06-10T17:56:43.826Z,62.95
2017-06-10T17:57:45.262Z,63.73
2017-06-10T17:58:46.691Z,63.92
2017-06-10T17:59:48.131Z,64.08
2017-06-10T18:00:49.574Z,64.76
2017-06-10T18:01:51.009Z,64.66
2017-06-10T18:02:52.439Z,63.15
2017-06-10T18:03:53.867Z,62.28
2017-06-10T18:04:55.308Z,62.95
2017-06-10T18:05:56.740Z,61.02
2017-06-10T18:06:58.173Z,61.12
2017-06-10T18:07:59.602Z,62.47
2017-06-10T18:09:01.039Z,61.51
2017-06-10T18:10:02.482Z,61.99
2017-06-10T18:11:03.920Z,64.76
2017-06-10T18:12:05.351Z,65.53
2017-06-10T18:13:06.785Z,66.49
2017-06-10T18:14:08.226Z,65.72
2017-06-10T18:15:09.664Z,65.91
2017-06-10T18:16:11.100Z,65.05
2017-06-10T18:17:12.539Z,64.37
2017-06-10T18:18:13.976Z,64.28
2017-06-10T18:19:15.415Z,64.76
2017-06-10T18:20:16.863Z,65.53
2017-06-10T18:21:18.293Z,65.82
2017-06-10T18:22:19.729Z,64.28
2017-06-10T18:23:21.168Z,65.53
2017-06-10T18:24:22.608Z,64.86
2017-06-10T18:25:24.033Z,65.05
2017-06-10T18:26:25.465Z,65.05
2017-06-10T18:27:26.903Z,66.78
2017-06-10T18:28:28.336Z,66.88
2017-06-10T18:29:29.766Z,66.49
2017-06-10T18:30:31.209Z,68.04
2017-06-10T18:31:32.656Z,67.27
2017-06-10T18:32:34.100Z,67.27
2017-06-10T18:33:35.535Z,67.65
2017-06-10T18:34:36.977Z,66.30
2017-06-10T18:35:38.407Z,68.01
2017-06-10T18:36:39.841Z,66.59
2017-06-10T18:37:41.303Z,65.72
2017-06-10T18:38:42.737Z,65.05
2017-06-10T18:39:44.231Z,65.72
2017-06-10T18:40:45.666Z,66.30
2017-06-10T18:41:47.105Z,69.97
2017-06-10T18:42:48.539Z,71.51
2017-06-10T18:43:49.984Z,70.32
2017-06-10T18:44:51.429Z,68.29
2017-06-10T18:45:52.867Z,66.46
2017-06-10T18:46:54.297Z,69.16
2017-06-10T18:47:55.734Z,67.43
2017-06-10T18:48:57.166Z,68.19
2017-06-10T18:49:58.610Z,67.62
2017-06-10T18:51:00.055Z,66.94
2017-06-10T18:52:01.489Z,67.71
2017-06-10T18:53:03.011Z,65.59
2017-06-10T18:54:04.445Z,65.88
2017-06-10T18:55:05.888Z,67.91
2017-06-10T18:56:07.318Z,68.10
2017-06-10T18:57:08.760Z,68.26
2017-06-10T18:58:10.201Z,67.91
2017-06-10T18:59:11.639Z,69.03
2017-06-10T19:00:13.074Z,69.90
2017-06-10T19:01:14.510Z,70.48
2017-06-10T19:02:15.939Z,71.19
2017-06-10T19:03:17.391Z,72.21
2017-06-10T19:04:18.828Z,72.89
2017-06-10T19:05:20.268Z,75.01
2017-06-10T19:06:21.711Z,75.30
2017-06-10T19:07:23.143Z,75.88